createdAt,value
2018-02-06T00:03:01.000Z,31.805
2018-02-06T00:13:00.000Z,31.858
2018-02-06T00:23:00.000Z,31.822
2018-02-06T00:33:01.000Z,31.744
2018-02-06T00:43:01.000Z,31.839
2018-02-06T00:53:01.000Z,31.846
2018-02-06T01:03:01.000Z,31.856
2018-02-06T01:13:01.000Z,31.993
2018-02-06T01:23:01.000Z,31.86
2018-02-06T01:33:01.000Z,31.826
2018-02-06T01:43:01.000Z,32.028
2018-02-06T01:53:01.000Z,31.95
2018-02-06T02:03:01.000Z,31.904
2018-02-06T02:13:01.000Z,31.805
2018-02-06T02:23:01.000Z,31.93
2018-02-06T02:33:01.000Z,31.982
2018-02-06T04:43:01.000Z,31.109
2018-02-06T04:53:01.000Z,31.673
2018-02-06T05:03:01.000Z,31.281
2018-02-06T05:13:01.000Z,31.3
2018-02-06T05:23:01.000Z,31.396
2018-02-06T05:33:01.000Z,31.439
2018-02-06T05:43:01.000Z,31.47
2018-02-06T05:53:01.000Z,31.352
2018-02-06T06:03:01.000Z,31.47
2018-02-06T06:13:01.000Z,31.482
2018-02-06T06:23:01.000Z,31.57
2018-02-06T06:33:01.000Z,31.668
2018-02-06T06:43:01.000Z,31.832
2018-02-06T06:53:01.000Z,31.849
2018-02-06T07:03:01.000Z,31.895
2018-02-06T07:13:01.000Z,31.821
2018-02-06T07:23:01.000Z,31.854
2018-02-06T07:33:01.000Z,31.715
2018-02-06T07:43:01.000Z,31.585
2018-02-06T07:53:01.000Z,31.543
2018-02-06T08:03:01.000Z,31.521
2018-02-06T08:13:01.000Z,31.447
2018-02-06T08:23:01.000Z,31.264
2018-02-06T08:33:01.000Z,31.063
2018-02-06T08:43:01.000Z,30.818
2018-02-06T08:53:01.000Z,30.662
2018-02-06T09:03:01.000Z,30.913
2018-02-06T09:13:02.000Z,30.752
2018-02-06T09:23:02.000Z,30.54
2018-02-06T09:33:02.000Z,30.359
2018-02-06T09:43:02.000Z,30.101
2018-02-06T09:53:04.000Z,29.729
2018-02-06T10:03:02.000Z,29.248
2018-02-06T10:13:02.000Z,29.614
2018-02-06T10:23:02.000Z,29.515
2018-02-06T10:33:02.000Z,29.336
2018-02-06T10:43:02.000Z,28.992
2018-02-06T10:53:02.000Z,28.93
2018-02-06T11:03:02.000Z,29.022
2018-02-06T11:23:02.000Z,28.719
2018-02-06T11:33:02.000Z,28.861
2018-02-06T11:43:02.000Z,28.6
2018-02-06T11:53:02.000Z,28.128
2018-02-06T12:03:02.000Z,28.149
2018-02-06T12:13:02.000Z,28.042
2018-02-06T12:23:02.000Z,27.797
2018-02-06T12:33:02.000Z,27.341
2018-02-06T12:43:02.000Z,29.712
2018-02-06T12:53:02.000Z,29.27
2018-02-06T13:03:02.000Z,28.887
2018-02-06T13:13:02.000Z,28.722
2018-02-06T13:23:02.000Z,28.952
2018-02-06T13:33:02.000Z,29.006
2018-02-06T13:43:02.000Z,28.996
2018-02-06T13:53:02.000Z,29.203
2018-02-06T14:03:02.000Z,29.159
2018-02-06T14:13:02.000Z,29.007
2018-02-06T14:23:02.000Z,29.387
2018-02-06T14:33:02.000Z,29.636
2018-02-06T14:43:02.000Z,29.014
2018-02-06T14:53:02.000Z,29.085
2018-02-06T15:03:02.000Z,29.072
2018-02-06T15:13:02.000Z,29.421
2018-02-06T15:23:02.000Z,29.5
2018-02-06T15:33:03.000Z,29.557
2018-02-06T15:43:02.000Z,29.639
2018-02-06T15:53:02.000Z,30.056
2018-02-06T16:03:02.000Z,29.997
2018-02-06T16:13:02.000Z,30.06
2018-02-06T16:23:02.000Z,30.116
2018-02-06T16:33:02.000Z,30.178
2018-02-06T16:43:02.000Z,30.009
2018-02-06T16:53:02.000Z,29.724
2018-02-06T17:03:02.000Z,29.912
2018-02-06T17:13:02.000Z,30.275
2018-02-06T17:23:02.000Z,30.733
2018-02-06T17:33:03.000Z,31.78
2018-02-06T17:43:03.000Z,31.966
2018-02-06T17:53:03.000Z,31.797
2018-02-06T18:03:03.000Z,31.729
2018-02-06T18:13:03.000Z,31.672
2018-02-06T18:23:03.000Z,31.485
2018-02-06T18:33:03.000Z,32.45
2018-02-06T18:43:03.000Z,32.561
2018-02-06T18:53:03.000Z,34.237
2018-02-06T19:03:03.000Z,34.235
2018-02-06T19:13:03.000Z,33.341
2018-02-06T19:23:03.000Z,34.204
2018-02-06T19:33:03.000Z,34.046
2018-02-06T19:43:03.000Z,33.511
2018-02-06T19:53:03.000Z,33.163
2018-02-06T20:03:03.000Z,33.095
2018-02-06T20:13:03.000Z,33.037
2018-02-06T20:23:03.000Z,32.744
2018-02-06T20:33:03.000Z,32.611
2018-02-06T20:43:03.000Z,32.49
2018-02-06T20:53:03.000Z,32.51
2018-02-06T21:03:03.000Z,32.62
2018-02-06T21:13:03.000Z,32.642
2018-02-06T21:23:03.000Z,32.753
2018-02-06T21:33:03.000Z,32.546
2018-02-06T21:43:03.000Z,32.166
2018-02-06T21:53:03.000Z,32.297
2018-02-06T22:03:03.000Z,32.951
2018-02-06T22:13:03.000Z,33.083
2018-02-06T22:23:03.000Z,32.677
2018-02-06T22:33:03.000Z,32.208
2018-02-06T22:43:03.000Z,31.857
2018-02-06T22:53:03.000Z,31.496
2018-02-06T23:03:03.000Z,31.384
2018-02-06T23:13:03.000Z,31.38
2018-02-06T23:23:03.000Z,31.354
2018-02-06T23:33:03.000Z,31.276
2018-02-06T23:43:03.000Z,31.447
2018-02-06T23:53:03.000Z,31.344
